sensor_id;sensor_type;location;lat;lon;timestamp;pressure;altitude;pressure_sealevel;temperature;humidity
21086;BME280;34247;50.064;19.970;2023-01-31T01:42:24;98564.44;;;3.41;100.00
21086;BME280;34247;50.064;19.970;2023-01-31T01:43:48;98569.59;;;3.42;100.00
21086;BME280;34247;50.064;19.970;2023-01-31T01:44:56;98570.50;;;3.41;100.00
21086;BME280;34247;50.064;19.970;2023-01-31T01:46:00;98570.50;;;3.41;100.00
21086;BME280;34247;50.064;19.970;2023-01-31T01:47:33;98578.84;;;3.49;100.00
21086;BME280;34247;50.064;19.970;2023-01-31T01:48:40;98581.31;;;3.52;100.00
21086;BME280;34247;50.064;19.970;2023-01-31T01:49:54;98577.75;;;3.53;100.00
21086;BME280;34247;50.064;19.970;2023-01-31T01:51:03;98582.06;;;3.54;100.00
21086;BME280;34247;50.064;19.970;2023-01-31T01:52:10;98585.38;;;3.58;100.00
21086;BME280;34247;50.064;19.970;2023-01-31T01:53:25;98581.66;;;3.62;100.00
21086;BME280;34247;50.064;19.970;2023-01-31T01:54:54;98586.78;;;3.65;100.00
21086;BME280;34247;50.064;19.970;2023-01-31T01:56:12;98581.06;;;3.57;100.00
21086;BME280;34247;50.064;19.970;2023-01-31T01:57:31;98579.31;;;3.57;100.00
21086;BME280;34247;50.064;19.970;2023-01-31T01:58:56;98585.38;;;3.58;100.00
21086;BME280;34247;50.064;19.970;2023-01-31T02:01:38;98594.28;;;3.55;100.00
21086;BME280;34247;50.064;19.970;2023-01-31T02:02:45;98589.94;;;3.54;100.00
21086;BME280;34247;50.064;19.970;2023-01-31T02:03:52;98588.94;;;3.57;100.00
21086;BME280;34247;50.064;19.970;2023-01-31T02:04:56;98589.63;;;3.60;100.00
21086;BME280;34247;50.064;19.970;2023-01-31T02:06:04;98596.75;;;3.58;100.00
21086;BME280;34247;50.064;19.970;2023-01-31T02:07:16;98594.88;;;3.60;100.00
21086;BME280;34247;50.064;19.970;2023-01-31T02:08:24;98598.44;;;3.59;100.00
21086;BME280;34247;50.064;19.970;2023-01-31T02:10:05;98593.09;;;3.61;100.00
21086;BME280;34247;50.064;19.970;2023-01-31T02:11:32;98597.50;;;3.60;100.00
21086;BME280;34247;50.064;19.970;2023-01-31T02:12:38;98595.66;;;3.63;100.00
21086;BME280;34247;50.064;19.970;2023-01-31T02:13:49;98594.03;;;3.60;100.00
21086;BME280;34247;50.064;19.970;2023-01-31T02:14:54;98600.84;;;3.64;100.00
21086;BME280;34247;50.064;19.970;2023-01-31T02:15:59;98594.66;;;3.65;100.00
21086;BME280;34247;50.064;19.970;2023-01-31T02:17:04;98607.06;;;3.62;100.00
21086;BME280;34247;50.064;19.970;2023-01-31T02:18:08;98606.09;;;3.64;100.00
21086;BME280;34247;50.064;19.970;2023-01-31T02:34:03;98617.72;;;3.58;100.00
21086;BME280;34247;50.064;19.970;2023-01-31T02:41:08;98631.47;;;3.64;100.00
21086;BME280;34247;50.064;19.970;2023-01-31T02:44:30;98637.41;;;3.67;100.00
21086;BME280;34247;50.064;19.970;2023-01-31T02:46:09;98640.34;;;3.61;100.00
21086;BME280;34247;50.064;19.970;2023-01-31T02:48:04;98636.56;;;3.67;100.00
21086;BME280;34247;50.064;19.970;2023-01-31T02:49:49;98639.72;;;3.73;100.00
21086;BME280;34247;50.064;19.970;2023-01-31T02:51:32;98650.31;;;3.72;100.00
21086;BME280;34247;50.064;19.970;2023-01-31T02:53:17;98650.31;;;3.72;100.00
21086;BME280;34247;50.064;19.970;2023-01-31T02:54:27;98659.03;;;3.72;100.00
21086;BME280;34247;50.064;19.970;2023-01-31T02:55:59;98659.78;;;3.74;100.00
21086;BME280;34247;50.064;19.970;2023-01-31T02:57:51;98660.63;;;3.75;100.00
21086;BME280;34247;50.064;19.970;2023-01-31T02:59:12;98673.53;;;3.79;100.00
21086;BME280;34247;50.064;19.970;2023-01-31T03:00:29;98667.19;;;3.83;100.00
21086;BME280;34247;50.064;19.970;2023-01-31T03:01:45;98676.25;;;3.78;100.00
21086;BME280;34247;50.064;19.970;2023-01-31T03:02:54;98683.97;;;3.81;100.00
21086;BME280;34247;50.064;19.970;2023-01-31T03:04:07;98682.91;;;3.85;100.00
21086;BME280;34247;50.064;19.970;2023-01-31T03:05:23;98686.28;;;3.87;100.00
21086;BME280;34247;50.064;19.970;2023-01-31T03:07:57;98690.78;;;3.85;100.00
21086;BME280;34247;50.064;19.970;2023-01-31T03:09:16;98680.28;;;3.85;100.00
21086;BME280;34247;50.064;19.970;2023-01-31T03:12:12;98688.53;;;3.77;100.00
21086;BME280;34247;50.064;19.970;2023-01-31T03:16:39;98685.28;;;3.90;100.00
21086;BME280;34247;50.064;19.970;2023-01-31T03:19:50;98687.03;;;3.89;100.00
21086;BME280;34247;50.064;19.970;2023-01-31T03:21:17;98681.25;;;3.82;100.00
21086;BME280;34247;50.064;19.970;2023-01-31T03:22:43;98682.72;;;3.88;100.00
21086;BME280;34247;50.064;19.970;2023-01-31T03:23:52;98687.13;;;3.87;100.00
21086;BME280;34247;50.064;19.970;2023-01-31T03:24:59;98677.56;;;3.86;99.83
21086;BME280;34247;50.064;19.970;2023-01-31T03:26:08;98683.66;;;3.87;99.83
21086;BME280;34247;50.064;19.970;2023-01-31T03:27:19;98689.59;;;3.91;99.61
21086;BME280;34247;50.064;19.970;2023-01-31T03:28:31;98687.97;;;3.88;99.32
21086;BME280;34247;50.064;19.970;2023-01-31T03:29:37;98698.19;;;3.94;99.32
21086;BME280;34247;50.064;19.970;2023-01-31T03:30:58;98695.56;;;3.94;98.80
21086;BME280;34247;50.064;19.970;2023-01-31T03:33:58;98701.34;;;4.01;98.27
21086;BME280;34247;50.064;19.970;2023-01-31T03:35:05;98702.66;;;3.92;98.02
21086;BME280;34247;50.064;19.970;2023-01-31T03:37:54;98720.28;;;4.07;98.14
21086;BME280;34247;50.064;19.970;2023-01-31T03:40:49;98725.13;;;3.98;97.31
21086;BME280;34247;50.064;19.970;2023-01-31T03:42:07;98719.81;;;3.99;97.55
21086;BME280;34247;50.064;19.970;2023-01-31T03:43:27;98725.81;;;4.01;97.24
21086;BME280;34247;50.064;19.970;2023-01-31T03:44:55;98723.28;;;4.00;96.91
21086;BME280;34247;50.064;19.970;2023-01-31T03:46:27;98722.44;;;3.99;96.85
21086;BME280;34247;50.064;19.970;2023-01-31T03:47:43;98727.59;;;4.01;96.71
21086;BME280;34247;50.064;19.970;2023-01-31T03:48:52;98731.06;;;4.01;96.59
21086;BME280;34247;50.064;19.970;2023-01-31T03:50:27;98727.69;;;3.99;95.97
21086;BME280;34247;50.064;19.970;2023-01-31T03:51:35;98726.97;;;3.96;96.00
21086;BME280;34247;50.064;19.970;2023-01-31T03:52:53;98728.59;;;3.98;96.31
21086;BME280;34247;50.064;19.970;2023-01-31T03:54:07;98739.03;;;4.00;95.73
21086;BME280;34247;50.064;19.970;2023-01-31T03:55:25;98733.84;;;3.98;96.03
21086;BME280;34247;50.064;19.970;2023-01-31T03:56:41;98736.34;;;4.01;95.86
21086;BME280;34247;50.064;19.970;2023-01-31T03:57:53;98734.72;;;3.99;94.85
21086;BME280;34247;50.064;19.970;2023-01-31T03:59:17;98731.06;;;4.01;94.82
21086;BME280;34247;50.064;19.970;2023-01-31T04:00:26;98732.78;;;4.02;94.48
21086;BME280;34247;50.064;19.970;2023-01-31T04:01:35;98737.84;;;4.05;94.34
21086;BME280;34247;50.064;19.970;2023-01-31T04:02:41;98742.25;;;4.05;94.15
21086;BME280;34247;50.064;19.970;2023-01-31T04:04:01;98738.88;;;4.03;93.79
21086;BME280;34247;50.064;19.970;2023-01-31T04:05:17;98738.88;;;4.03;93.40
21086;BME280;34247;50.064;19.970;2023-01-31T04:06:23;98743.75;;;4.10;93.66
21086;BME280;34247;50.064;19.970;2023-01-31T04:07:26;98743.81;;;4.09;93.37
21086;BME280;34247;50.064;19.970;2023-01-31T04:08:34;98743.38;;;4.01;93.38
21086;BME280;34247;50.064;19.970;2023-01-31T04:09:39;98743.81;;;4.09;93.67
21086;BME280;34247;50.064;19.970;2023-01-31T04:10:43;98742.88;;;4.10;93.37
21086;BME280;34247;50.064;19.970;2023-01-31T04:11:49;98749.25;;;4.06;93.24
21086;BME280;34247;50.064;19.970;2023-01-31T04:12:54;98757.72;;;4.11;93.50
21086;BME280;34247;50.064;19.970;2023-01-31T04:13:57;98753.47;;;4.08;93.47
21086;BME280;34247;50.064;19.970;2023-01-31T04:15:04;98753.63;;;4.05;93.17
21086;BME280;34247;50.064;19.970;2023-01-31T04:16:12;98759.50;;;4.10;93.38
21086;BME280;34247;50.064;19.970;2023-01-31T04:17:20;98754.16;;;4.12;93.18
21086;BME280;34247;50.064;19.970;2023-01-31T04:18:23;98758.56;;;4.11;93.42
21086;BME280;34247;50.064;19.970;2023-01-31T04:19:27;98752.38;;;4.12;93.34
21086;BME280;34247;50.064;19.970;2023-01-31T04:20:33;98751.69;;;4.09;93.36
21086;BME280;34247;50.064;19.970;2023-01-31T04:21:38;98750.09;;;4.06;93.41
21086;BME280;34247;50.064;19.970;2023-01-31T04:22:45;98750.09;;;4.06;93.45
21086;BME280;34247;50.064;19.970;2023-01-31T04:23:49;98763.22;;;4.06;93.47
21086;BME280;34247;50.064;19.970;2023-01-31T04:24:53;98759.81;;;4.04;93.61
21086;BME280;34247;50.064;19.970;2023-01-31T04:25:57;98761.66;;;4.02;93.70
21086;BME280;34247;50.064;19.970;2023-01-31T04:27:01;98760.06;;;4.00;93.67
21086;BME280;34247;50.064;19.970;2023-01-31T04:28:05;98758.41;;;3.97;93.43
21086;BME280;34247;50.064;19.970;2023-01-31T04:29:09;98762.72;;;3.98;93.18
21086;BME280;34247;50.064;19.970;2023-01-31T04:30:17;98760.06;;;4.00;93.16
21086;BME280;34247;50.064;19.970;2023-01-31T04:31:21;98767.97;;;3.98;93.07
21086;BME280;34247;50.064;19.970;2023-01-31T04:32:25;98766.81;;;4.04;93.10
21086;BME280;34247;50.064;19.970;2023-01-31T04:33:29;98760.06;;;4.00;92.99
21086;BME280;34247;50.064;19.970;2023-01-31T04:34:33;98765.91;;;4.05;92.69
21086;BME280;34247;50.064;19.970;2023-01-31T04:35:41;98775.25;;;4.10;92.63
21086;BME280;34247;50.064;19.970;2023-01-31T04:36:44;98770.25;;;4.06;92.33
21086;BME280;34247;50.064;19.970;2023-01-31T04:37:49;98771.03;;;4.08;92.39
21086;BME280;34247;50.064;19.970;2023-01-31T04:38:55;98774.97;;;3.99;92.16
21086;BME280;34247;50.064;19.970;2023-01-31T04:39:59;98782.84;;;3.99;92.22
21086;BME280;34247;50.064;19.970;2023-01-31T04:41:04;98776.66;;;4.00;92.30
21086;BME280;34247;50.064;19.970;2023-01-31T04:42:08;98781.09;;;3.98;92.28
21086;BME280;34247;50.064;19.970;2023-01-31T04:43:15;98793.25;;;4.01;92.07
21086;BME280;34247;50.064;19.970;2023-01-31T04:44:19;98781.09;;;3.98;92.17
21086;BME280;34247;50.064;19.970;2023-01-31T04:45:24;98785.00;;;3.91;92.43
21086;BME280;34247;50.064;19.970;2023-01-31T04:46:28;98783.25;;;3.90;92.26
21086;BME280;34247;50.064;19.970;2023-01-31T04:47:32;98787.84;;;3.86;92.36
21086;BME280;34247;50.064;19.970;2023-01-31T04:48:36;98799.94;;;3.89;92.21
21086;BME280;34247;50.064;19.970;2023-01-31T04:49:41;98802.56;;;3.89;92.11
21086;BME280;34247;50.064;19.970;2023-01-31T04:50:47;98806.84;;;3.92;92.00
21086;BME280;34247;50.064;19.970;2023-01-31T04:51:50;98803.38;;;3.91;91.60
21086;BME280;34247;50.064;19.970;2023-01-31T04:52:54;98807.75;;;3.91;91.96
21086;BME280;34247;50.064;19.970;2023-01-31T04:53:59;98808.13;;;3.83;91.94
21086;BME280;34247;50.064;19.970;2023-01-31T04:55:03;98812.81;;;3.76;92.09
21086;BME280;34247;50.064;19.970;2023-01-31T04:56:12;98819.06;;;3.74;92.12
21086;BME280;34247;50.064;19.970;2023-01-31T04:57:16;98809.50;;;3.73;91.88
21086;BME280;34247;50.064;19.970;2023-01-31T04:58:21;98822.47;;;3.76;91.84
21086;BME280;34247;50.064;19.970;2023-01-31T04:59:25;98822.34;;;3.79;91.88
21086;BME280;34247;50.064;19.970;2023-01-31T05:00:29;98821.78;;;3.72;91.89
21086;BME280;34247;50.064;19.970;2023-01-31T05:01:34;98821.56;;;3.77;91.84
21086;BME280;34247;50.064;19.970;2023-01-31T05:02:38;98823.38;;;3.75;92.16
21086;BME280;34247;50.064;19.970;2023-01-31T05:03:42;98826.38;;;3.67;92.13
21086;BME280;34247;50.064;19.970;2023-01-31T05:04:46;98829.09;;;3.66;92.05
21086;BME280;34247;50.064;19.970;2023-01-31T05:05:50;98834.34;;;3.66;92.21
21086;BME280;34247;50.064;19.970;2023-01-31T05:06:54;98833.50;;;3.65;92.60
21086;BME280;34247;50.064;19.970;2023-01-31T05:07:58;98841.16;;;3.70;92.46
21086;BME280;34247;50.064;19.970;2023-01-31T05:09:02;98841.16;;;3.70;92.58
21086;BME280;34247;50.064;19.970;2023-01-31T05:10:08;98837.88;;;3.65;92.72
21086;BME280;34247;50.064;19.970;2023-01-31T05:11:14;98835.53;;;3.58;93.38
21086;BME280;34247;50.064;19.970;2023-01-31T05:12:19;98847.06;;;3.56;93.41
21086;BME280;34247;50.064;19.970;2023-01-31T05:13:24;98848.75;;;3.57;93.66
21086;BME280;34247;50.064;19.970;2023-01-31T05:14:27;98849.44;;;3.60;93.61
21086;BME280;34247;50.064;19.970;2023-01-31T05:15:31;98854.50;;;3.65;93.34
21086;BME280;34247;50.064;19.970;2023-01-31T05:16:35;98854.56;;;3.64;93.45
21086;BME280;34247;50.064;19.970;2023-01-31T05:17:39;98860.75;;;3.63;93.47
21086;BME280;34247;50.064;19.970;2023-01-31T05:18:43;98858.03;;;3.64;93.58
21086;BME280;34247;50.064;19.970;2023-01-31T05:19:47;98867.41;;;3.70;93.57
21086;BME280;34247;50.064;19.970;2023-01-31T05:20:51;98867.41;;;3.70;93.46
21086;BME280;34247;50.064;19.970;2023-01-31T05:21:56;98859.66;;;3.67;93.72
21086;BME280;34247;50.064;19.970;2023-01-31T05:23:02;98871.00;;;3.67;93.43
21086;BME280;34247;50.064;19.970;2023-01-31T05:24:09;98867.97;;;3.57;93.90
21086;BME280;34247;50.064;19.970;2023-01-31T05:25:17;98872.97;;;3.62;94.24
21086;BME280;34247;50.064;19.970;2023-01-31T05:26:21;98868.63;;;3.63;93.97
21086;BME280;34247;50.064;19.970;2023-01-31T05:27:25;98872.84;;;3.65;93.85
21086;BME280;34247;50.064;19.970;2023-01-31T05:28:31;98874.06;;;3.58;93.67
21086;BME280;34247;50.064;19.970;2023-01-31T05:29:35;98878.53;;;3.56;94.25
21086;BME280;34247;50.064;19.970;2023-01-31T05:30:39;98880.84;;;3.62;94.29
21086;BME280;34247;50.064;19.970;2023-01-31T05:31:43;98874.91;;;3.58;93.65
21086;BME280;34247;50.064;19.970;2023-01-31T05:32:47;98875.91;;;3.56;93.94
21086;BME280;34247;50.064;19.970;2023-01-31T05:33:52;98876.78;;;3.56;94.33
21086;BME280;34247;50.064;19.970;2023-01-31T05:34:56;98871.53;;;3.56;93.99
21086;BME280;34247;50.064;19.970;2023-01-31T05:36:00;98887.09;;;3.59;94.02
21086;BME280;34247;50.064;19.970;2023-01-31T05:37:09;98883.72;;;3.57;93.88
21086;BME280;34247;50.064;19.970;2023-01-31T05:38:16;98881.84;;;3.59;93.48
21086;BME280;34247;50.064;19.970;2023-01-31T05:39:20;98887.25;;;3.56;93.71
21086;BME280;34247;50.064;19.970;2023-01-31T05:40:24;98882.94;;;3.55;93.67
21086;BME280;34247;50.064;19.970;2023-01-31T05:41:28;98881.16;;;3.56;93.66
21086;BME280;34247;50.064;19.970;2023-01-31T05:42:32;98890.59;;;3.60;93.32
21086;BME280;34247;50.064;19.970;2023-01-31T05:43:35;98882.78;;;3.58;93.16
21086;BME280;34247;50.064;19.970;2023-01-31T05:44:39;98887.97;;;3.60;93.19
21086;BME280;34247;50.064;19.970;2023-01-31T05:45:43;98889.53;;;3.64;93.35
21086;BME280;34247;50.064;19.970;2023-01-31T05:46:47;98894.53;;;3.69;92.88
21086;BME280;34247;50.064;19.970;2023-01-31T05:47:52;98894.91;;;3.61;92.52
21086;BME280;34247;50.064;19.970;2023-01-31T05:48:56;98893.38;;;3.57;92.52
21086;BME280;34247;50.064;19.970;2023-01-31T05:49:59;98896.91;;;3.56;92.21
21086;BME280;34247;50.064;19.970;2023-01-31T05:51:04;98897.53;;;3.61;92.52
21086;BME280;34247;50.064;19.970;2023-01-31T05:52:08;98903.59;;;3.63;92.13
21086;BME280;34247;50.064;19.970;2023-01-31T05:53:13;98902.66;;;3.64;92.12
21086;BME280;34247;50.064;19.970;2023-01-31T05:54:18;98899.75;;;3.70;91.92
21086;BME280;34247;50.064;19.970;2023-01-31T05:55:22;98910.94;;;3.74;91.64
21086;BME280;34247;50.064;19.970;2023-01-31T05:56:26;98909.94;;;3.76;91.40
21086;BME280;34247;50.064;19.970;2023-01-31T05:57:30;98914.41;;;3.74;91.12
21086;BME280;34247;50.064;19.970;2023-01-31T05:58:34;98914.56;;;3.71;90.67
21086;BME280;34247;50.064;19.970;2023-01-31T05:59:38;98911.03;;;3.72;90.81
21086;BME280;34247;50.064;19.970;2023-01-31T06:00:42;98915.44;;;3.72;90.66
21086;BME280;34247;50.064;19.970;2023-01-31T06:01:46;98921.38;;;3.75;90.67
21086;BME280;34247;50.064;19.970;2023-01-31T06:02:51;98913.78;;;3.69;89.99
21086;BME280;34247;50.064;19.970;2023-01-31T06:03:54;98912.16;;;3.67;90.19
21086;BME280;34247;50.064;19.970;2023-01-31T06:04:58;98920.31;;;3.60;89.94
21086;BME280;34247;50.064;19.970;2023-01-31T06:06:03;98919.59;;;3.57;89.89
21086;BME280;34247;50.064;19.970;2023-01-31T06:07:08;98921.03;;;3.64;89.91
21086;BME280;34247;50.064;19.970;2023-01-31T06:08:27;98929.59;;;3.68;89.62
21086;BME280;34247;50.064;19.970;2023-01-31T06:09:38;98927.81;;;3.68;89.47
21086;BME280;34247;50.064;19.970;2023-01-31T06:10:51;98928.41;;;3.75;89.38
21086;BME280;34247;50.064;19.970;2023-01-31T06:11:59;98936.28;;;3.75;89.24
21086;BME280;34247;50.064;19.970;2023-01-31T06:13:09;98937.94;;;3.77;89.07
21086;BME280;34247;50.064;19.970;2023-01-31T06:14:22;98943.88;;;3.81;88.98
21086;BME280;34247;50.064;19.970;2023-01-31T06:15:44;98943.94;;;3.79;88.41
21086;BME280;34247;50.064;19.970;2023-01-31T06:16:49;98943.28;;;3.74;88.64
21086;BME280;34247;50.064;19.970;2023-01-31T06:17:58;98949.56;;;3.72;88.43
21086;BME280;34247;50.064;19.970;2023-01-31T06:19:20;98946.94;;;3.72;88.45
21086;BME280;34247;50.064;19.970;2023-01-31T06:20:35;98952.03;;;3.75;88.15
21086;BME280;34247;50.064;19.970;2023-01-31T06:21:43;98953.78;;;3.74;87.71
21086;BME280;34247;50.064;19.970;2023-01-31T06:22:49;98952.94;;;3.74;87.70
21086;BME280;34247;50.064;19.970;2023-01-31T06:23:56;98958.06;;;3.77;87.47
21086;BME280;34247;50.064;19.970;2023-01-31T06:25:00;98958.06;;;3.77;87.27
21086;BME280;34247;50.064;19.970;2023-01-31T06:26:05;98951.25;;;3.73;87.63
21086;BME280;34247;50.064;19.970;2023-01-31T06:27:16;98966.28;;;3.69;87.75
21086;BME280;34247;50.064;19.970;2023-01-31T06:28:22;98957.50;;;3.70;87.07
21086;BME280;34247;50.064;19.970;2023-01-31T06:29:26;98970.56;;;3.72;86.72
21086;BME280;34247;50.064;19.970;2023-01-31T06:30:31;98965.16;;;3.75;86.78
21086;BME280;34247;50.064;19.970;2023-01-31T06:31:41;98971.97;;;3.79;87.12
21086;BME280;34247;50.064;19.970;2023-01-31T06:32:46;98974.78;;;3.74;87.72
21086;BME280;34247;50.064;19.970;2023-01-31T06:33:50;98979.78;;;3.80;87.73
21086;BME280;34247;50.064;19.970;2023-01-31T06:34:54;98984.81;;;3.85;87.71
21086;BME280;34247;50.064;19.970;2023-01-31T06:35:59;98978.78;;;3.83;87.60
21086;BME280;34247;50.064;19.970;2023-01-31T06:37:03;98977.88;;;3.84;87.82
21086;BME280;34247;50.064;19.970;2023-01-31T06:38:11;98983.75;;;3.89;87.93
21086;BME280;34247;50.064;19.970;2023-01-31T06:39:16;98981.00;;;3.92;87.62
21086;BME280;34247;50.064;19.970;2023-01-31T06:40:22;98994.97;;;3.93;87.51
21086;BME280;34247;50.064;19.970;2023-01-31T06:41:26;98988.06;;;3.90;88.00
21086;BME280;34247;50.064;19.970;2023-01-31T06:42:30;98981.94;;;3.91;87.76
21086;BME280;34247;50.064;19.970;2023-01-31T06:43:37;98987.22;;;3.90;87.89
21086;BME280;34247;50.064;19.970;2023-01-31T06:44:40;98987.31;;;3.88;87.92
21086;BME280;34247;50.064;19.970;2023-01-31T06:45:44;98989.59;;;3.77;88.33
21086;BME280;34247;50.064;19.970;2023-01-31T06:46:48;98994.84;;;3.77;89.13
21086;BME280;34247;50.064;19.970;2023-01-31T06:47:52;99006.19;;;3.77;89.11
21086;BME280;34247;50.064;19.970;2023-01-31T06:48:57;99000.13;;;3.75;88.70
21086;BME280;34247;50.064;19.970;2023-01-31T06:50:02;99003.41;;;3.80;88.94
21086;BME280;34247;50.064;19.970;2023-01-31T06:51:22;99003.47;;;3.79;89.25
21086;BME280;34247;50.064;19.970;2023-01-31T06:52:26;99002.47;;;3.81;89.52
21086;BME280;34247;50.064;19.970;2023-01-31T06:53:30;99002.56;;;3.80;89.47
21086;BME280;34247;50.064;19.970;2023-01-31T06:54:35;99006.03;;;3.80;89.74
21086;BME280;34247;50.064;19.970;2023-01-31T06:55:39;99001.78;;;3.78;89.69
21086;BME280;34247;50.064;19.970;2023-01-31T06:56:42;99004.75;;;3.89;89.72
21086;BME280;34247;50.064;19.970;2023-01-31T06:57:48;99002.19;;;3.87;89.67
21086;BME280;34247;50.064;19.970;2023-01-31T06:58:52;99006.75;;;3.84;89.63
21086;BME280;34247;50.064;19.970;2023-01-31T06:59:56;99012.84;;;3.84;89.83
21086;BME280;34247;50.064;19.970;2023-01-31T07:01:10;99017.75;;;3.92;89.72
21086;BME280;34247;50.064;19.970;2023-01-31T07:02:17;99022.94;;;3.94;89.78
21086;BME280;34247;50.064;19.970;2023-01-31T07:03:21;99021.31;;;3.91;89.89
21086;BME280;34247;50.064;19.970;2023-01-31T07:04:24;99025.56;;;3.94;90.12
21086;BME280;34247;50.064;19.970;2023-01-31T07:05:29;99032.38;;;3.98;89.92
21086;BME280;34247;50.064;19.970;2023-01-31T07:06:33;99027.34;;;3.93;89.78
21086;BME280;34247;50.064;19.970;2023-01-31T07:07:37;99027.47;;;3.90;89.82
21086;BME280;34247;50.064;19.970;2023-01-31T07:08:41;99027.47;;;3.90;90.10
21086;BME280;34247;50.064;19.970;2023-01-31T07:09:45;99034.72;;;3.85;89.85
21086;BME280;34247;50.064;19.970;2023-01-31T07:10:52;99035.75;;;3.81;89.97
21086;BME280;34247;50.064;19.970;2023-01-31T07:11:56;99037.47;;;3.82;90.15
21086;BME280;34247;50.064;19.970;2023-01-31T07:13:00;99042.53;;;3.86;89.97
21086;BME280;34247;50.064;19.970;2023-01-31T07:14:05;99046.25;;;3.81;90.16
21086;BME280;34247;50.064;19.970;2023-01-31T07:15:13;99053.09;;;3.85;90.21
21086;BME280;34247;50.064;19.970;2023-01-31T07:16:17;99058.97;;;3.90;90.11
21086;BME280;34247;50.064;19.970;2023-01-31T07:17:28;99055.44;;;3.91;90.04
21086;BME280;34247;50.064;19.970;2023-01-31T07:18:32;99053.59;;;3.93;90.40
21086;BME280;34247;50.064;19.970;2023-01-31T07:19:36;99054.53;;;3.92;89.86
21086;BME280;34247;50.064;19.970;2023-01-31T07:20:41;99058.84;;;3.93;89.95
21086;BME280;34247;50.064;19.970;2023-01-31T07:21:45;99051.75;;;3.95;89.70
21086;BME280;34247;50.064;19.970;2023-01-31T07:22:56;99065.03;;;3.92;89.48
21086;BME280;34247;50.064;19.970;2023-01-31T07:24:01;99060.72;;;3.91;89.40
21086;BME280;34247;50.064;19.970;2023-01-31T07:25:06;99066.66;;;3.95;89.82
21086;BME280;34247;50.064;19.970;2023-01-31T07:26:09;99065.81;;;3.94;89.47
21086;BME280;34247;50.064;19.970;2023-01-31T07:27:18;99065.97;;;3.91;89.74
21086;BME280;34247;50.064;19.970;2023-01-31T07:28:21;99069.56;;;3.88;89.85
21086;BME280;34247;50.064;19.970;2023-01-31T07:29:26;99063.03;;;3.97;89.72
21086;BME280;34247;50.064;19.970;2023-01-31T07:30:30;99070.22;;;3.94;89.61
21086;BME280;34247;50.064;19.970;2023-01-31T07:31:34;99074.34;;;3.99;89.64
21086;BME280;34247;50.064;19.970;2023-01-31T07:32:38;99078.66;;;4.00;89.37
21086;BME280;34247;50.064;19.970;2023-01-31T07:33:42;99079.38;;;4.04;89.03
21086;BME280;34247;50.064;19.970;2023-01-31T07:34:46;99077.81;;;4.00;89.15
21086;BME280;34247;50.064;19.970;2023-01-31T07:35:54;99078.88;;;3.96;89.12
21086;BME280;34247;50.064;19.970;2023-01-31T07:36:57;99076.75;;;4.04;89.09
21086;BME280;34247;50.064;19.970;2023-01-31T07:38:04;99087.31;;;4.02;89.05
21086;BME280;34247;50.064;19.970;2023-01-31T07:39:08;99082.41;;;3.95;89.00
21086;BME280;34247;50.064;19.970;2023-01-31T07:40:14;99082.16;;;4.01;89.09
21086;BME280;34247;50.064;19.970;2023-01-31T07:41:18;99080.50;;;3.98;89.16
21086;BME280;34247;50.064;19.970;2023-01-31T07:42:22;99087.31;;;4.02;89.00
21086;BME280;34247;50.064;19.970;2023-01-31T07:43:26;99089.94;;;4.02;88.76
21086;BME280;34247;50.064;19.970;2023-01-31T07:44:30;99090.88;;;4.01;89.15
21086;BME280;34247;50.064;19.970;2023-01-31T07:45:34;99089.78;;;4.05;88.93
21086;BME280;34247;50.064;19.970;2023-01-31T07:46:39;99086.84;;;4.13;88.58
21086;BME280;34247;50.064;19.970;2023-01-31T07:47:43;99086.97;;;4.10;88.32
21086;BME280;34247;50.064;19.970;2023-01-31T07:48:47;99085.97;;;4.12;88.29
21086;BME280;34247;50.064;19.970;2023-01-31T07:49:50;99085.47;;;4.04;88.34
21086;BME280;34247;50.064;19.970;2023-01-31T07:51:00;99090.09;;;3.99;88.19
21086;BME280;34247;50.064;19.970;2023-01-31T07:52:04;99086.63;;;3.99;88.10
21086;BME280;34247;50.064;19.970;2023-01-31T07:53:11;99087.50;;;3.98;88.14
21086;BME280;34247;50.064;19.970;2023-01-31T07:54:15;99095.06;;;4.05;87.89
21086;BME280;34247;50.064;19.970;2023-01-31T07:55:19;99091.81;;;4.00;87.92
21086;BME280;34247;50.064;19.970;2023-01-31T07:56:23;99089.28;;;3.97;87.88
21086;BME280;34247;50.064;19.970;2023-01-31T07:57:33;99097.69;;;4.05;87.75
21086;BME280;34247;50.064;19.970;2023-01-31T07:58:39;99095.28;;;4.01;87.77
21086;BME280;34247;50.064;19.970;2023-01-31T07:59:44;99093.16;;;4.09;87.54
21086;BME280;34247;50.064;19.970;2023-01-31T08:00:48;99092.22;;;4.10;87.52
21086;BME280;34247;50.064;19.970;2023-01-31T08:02:16;99098.47;;;4.07;87.33
21086;BME280;34247;50.064;19.970;2023-01-31T08:03:39;99097.69;;;4.05;87.02
21086;BME280;34247;50.064;19.970;2023-01-31T08:04:47;99100.84;;;4.13;87.23
21086;BME280;34247;50.064;19.970;2023-01-31T08:05:51;99100.84;;;4.13;86.92
21086;BME280;34247;50.064;19.970;2023-01-31T08:06:55;99101.47;;;4.19;86.78
21086;BME280;34247;50.064;19.970;2023-01-31T08:07:59;99105.16;;;4.14;86.46
21086;BME280;34247;50.064;19.970;2023-01-31T08:09:14;99105.28;;;4.11;86.79
21086;BME280;34247;50.064;19.970;2023-01-31T08:10:17;99104.59;;;4.08;86.43
21086;BME280;34247;50.064;19.970;2023-01-31T08:11:22;99105.78;;;4.01;86.66
21086;BME280;34247;50.064;19.970;2023-01-31T08:12:26;99104.84;;;4.02;86.96
21086;BME280;34247;50.064;19.970;2023-01-31T08:13:34;99107.41;;;4.03;87.15
21086;BME280;34247;50.064;19.970;2023-01-31T08:14:39;99101.19;;;4.06;86.85
21086;BME280;34247;50.064;19.970;2023-01-31T08:15:43;99109.78;;;4.09;86.90
21086;BME280;34247;50.064;19.970;2023-01-31T08:16:51;99107.34;;;4.05;86.61
21086;BME280;34247;50.064;19.970;2023-01-31T08:17:55;99108.84;;;4.10;86.59
21086;BME280;34247;50.064;19.970;2023-01-31T08:18:59;99109.63;;;4.12;86.26
21086;BME280;34247;50.064;19.970;2023-01-31T08:20:03;99105.16;;;4.14;86.25
21086;BME280;34247;50.064;19.970;2023-01-31T08:21:13;99112.13;;;4.15;86.46